createdAt,value
2023-01-02T00:02:54.484Z,13.40
2023-01-02T00:05:58.290Z,13.42
2023-01-02T00:09:02.057Z,13.61
2023-01-02T00:12:06.212Z,13.53
2023-01-02T00:15:10.977Z,13.56
2023-01-02T00:18:15.015Z,13.35
2023-01-02T00:21:19.100Z,13.20
2023-01-02T00:24:23.168Z,13.19
2023-01-02T00:27:27.370Z,13.46
2023-01-02T00:30:37.941Z,13.39
2023-01-02T00:33:42.937Z,13.19
2023-01-02T00:36:46.873Z,13.28
2023-01-02T00:39:51.002Z,13.42
2023-01-02T00:42:54.674Z,13.53
2023-01-02T00:45:58.672Z,13.15
2023-01-02T00:49:02.764Z,13.25
2023-01-02T00:52:06.792Z,13.28
2023-01-02T00:55:10.579Z,13.22
2023-01-02T00:58:14.844Z,13.31
2023-01-02T01:01:18.790Z,13.35
2023-01-02T01:04:22.855Z,13.34
2023-01-02T01:07:27.043Z,13.69
2023-01-02T01:10:30.653Z,13.76
2023-01-02T01:13:34.549Z,13.42
2023-01-02T01:16:38.629Z,13.71
2023-01-02T01:19:42.490Z,13.54
2023-01-02T01:22:46.532Z,13.38
2023-01-02T01:25:50.599Z,13.21
2023-01-02T01:28:54.636Z,13.25
2023-01-02T01:31:58.627Z,13.12
2023-01-02T01:35:02.588Z,13.09
2023-01-02T01:38:09.085Z,12.92
2023-01-02T01:41:13.056Z,12.88
2023-01-02T01:44:17.112Z,13.03
2023-01-02T01:47:21.307Z,12.97
2023-01-02T01:50:25.441Z,12.95
2023-01-02T01:53:29.295Z,13.13
2023-01-02T01:56:33.392Z,13.14
2023-01-02T01:59:37.659Z,12.93
2023-01-02T02:02:41.832Z,13.15
2023-01-02T02:05:45.797Z,12.97
2023-01-02T02:08:49.370Z,12.90
2023-01-02T02:11:53.292Z,13.13
2023-01-02T02:14:57.307Z,13.32
2023-01-02T02:18:01.536Z,13.34
2023-01-02T02:21:05.398Z,13.33
2023-01-02T02:24:09.484Z,13.08
2023-01-02T02:27:13.402Z,12.91
2023-01-02T02:30:17.412Z,13.01
2023-01-02T02:33:21.420Z,12.95
2023-01-02T02:36:25.271Z,12.83
2023-01-02T02:39:29.433Z,13.00
2023-01-02T02:42:33.359Z,13.01
2023-01-02T02:45:37.443Z,13.01
2023-01-02T02:48:46.390Z,13.21
2023-01-02T02:51:50.607Z,13.25
2023-01-02T02:54:54.510Z,13.32
2023-01-02T02:57:58.675Z,13.23
2023-01-02T03:01:02.891Z,13.01
2023-01-02T03:04:06.831Z,13.15
2023-01-02T03:07:10.832Z,12.82
2023-01-02T03:10:14.892Z,13.14
2023-01-02T03:13:19.080Z,12.91
2023-01-02T03:16:23.172Z,12.79
2023-01-02T03:19:27.189Z,12.81
2023-01-02T03:22:31.237Z,12.67
2023-01-02T03:25:35.335Z,12.67
2023-01-02T03:28:39.304Z,12.96
2023-01-02T03:31:43.571Z,13.16
2023-01-02T03:34:47.445Z,13.01
2023-01-02T03:37:51.839Z,12.85
2023-01-02T03:40:56.153Z,12.84
2023-01-02T03:44:00.293Z,13.12
2023-01-02T03:47:04.140Z,13.05
2023-01-02T03:50:07.881Z,13.16
2023-01-02T03:53:11.773Z,13.46
2023-01-02T03:56:15.943Z,13.06
2023-01-02T03:59:22.210Z,13.27
2023-01-02T04:02:26.730Z,13.39
2023-01-02T04:05:30.466Z,12.97
2023-01-02T04:08:34.295Z,12.83
2023-01-02T04:11:38.422Z,12.55
2023-01-02T04:14:42.467Z,12.93
2023-01-02T04:17:46.415Z,12.81
2023-01-02T04:20:50.510Z,12.97
2023-01-02T04:23:54.462Z,12.97
2023-01-02T04:26:58.342Z,12.82
2023-01-02T04:30:02.544Z,12.58
2023-01-02T04:33:06.370Z,12.74
2023-01-02T04:36:10.352Z,12.81
2023-01-02T04:39:14.532Z,12.63
2023-01-02T04:42:18.741Z,12.86
2023-01-02T04:45:22.988Z,12.60
2023-01-02T04:48:26.829Z,12.52
2023-01-02T04:51:31.038Z,12.32
2023-01-02T04:54:35.257Z,12.57
2023-01-02T04:57:39.493Z,12.30
2023-01-02T05:00:43.571Z,12.26
2023-01-02T05:03:47.625Z,12.56
2023-01-02T05:06:51.616Z,12.50
2023-01-02T05:09:55.708Z,12.44
2023-01-02T05:12:59.509Z,12.40
2023-01-02T05:16:03.820Z,12.46
2023-01-02T05:19:07.702Z,12.61
2023-01-02T05:22:11.635Z,12.52
2023-01-02T05:25:15.752Z,12.77
2023-01-02T05:28:19.481Z,12.56
2023-01-02T05:31:23.448Z,12.60
2023-01-02T05:34:27.507Z,12.71
2023-01-02T05:37:31.520Z,12.64
2023-01-02T05:40:35.470Z,12.90
2023-01-02T05:43:39.485Z,13.12
2023-01-02T05:46:43.359Z,12.68
2023-01-02T05:49:48.013Z,12.80
2023-01-02T05:52:52.087Z,13.01
2023-01-02T05:55:55.935Z,12.85
2023-01-02T05:58:59.896Z,12.87
2023-01-02T06:02:04.070Z,12.58
2023-01-02T06:05:08.141Z,12.91
2023-01-02T06:08:12.031Z,12.68
2023-01-02T06:11:15.949Z,12.64
2023-01-02T06:14:19.991Z,12.64
2023-01-02T06:17:24.197Z,12.69
2023-01-02T06:20:28.248Z,12.32
2023-01-02T06:23:32.239Z,12.46
2023-01-02T06:26:36.286Z,12.51
2023-01-02T06:29:40.263Z,12.66
2023-01-02T06:32:44.516Z,12.24
2023-01-02T06:35:48.545Z,12.10
2023-01-02T06:38:52.452Z,12.13
2023-01-02T06:41:56.567Z,12.09
2023-01-02T06:45:00.563Z,12.29
2023-01-02T06:48:04.745Z,12.24
2023-01-02T06:51:08.876Z,12.32
2023-01-02T06:54:12.781Z,12.39
2023-01-02T06:57:16.760Z,12.29
2023-01-02T07:00:20.777Z,12.37
2023-01-02T07:03:24.705Z,12.45
2023-01-02T07:06:28.549Z,12.65
2023-01-02T07:09:32.471Z,12.91
2023-01-02T07:12:36.672Z,12.99
2023-01-02T07:15:40.962Z,12.82
2023-01-02T07:18:45.018Z,12.99
2023-01-02T07:21:48.832Z,12.93
2023-01-02T07:24:53.047Z,12.83
2023-01-02T07:27:57.121Z,13.09
2023-01-02T07:31:01.273Z,13.13
2023-01-02T07:34:05.343Z,13.32
2023-01-02T07:37:09.489Z,13.44
2023-01-02T07:40:13.624Z,13.14
2023-01-02T07:43:17.594Z,13.19
2023-01-02T07:46:21.825Z,13.15
2023-01-02T07:49:25.770Z,13.05
2023-01-02T07:52:29.753Z,12.99
2023-01-02T07:55:33.697Z,13.06
2023-01-02T07:58:37.414Z,13.16
2023-01-02T08:01:41.617Z,13.12
2023-01-02T08:04:45.336Z,13.15
2023-01-02T08:07:49.541Z,13.17
2023-01-02T08:10:53.485Z,12.97
2023-01-02T08:13:57.443Z,13.14
2023-01-02T08:17:01.323Z,13.23
2023-01-02T08:20:08.251Z,12.99
2023-01-02T08:23:12.991Z,13.30
2023-01-02T08:26:17.211Z,13.38
2023-01-02T08:29:20.983Z,13.61
2023-01-02T08:32:25.035Z,13.49
2023-01-02T08:35:38.108Z,13.37
2023-01-02T08:38:42.681Z,13.70
2023-01-02T08:41:46.410Z,13.77
2023-01-02T08:44:50.506Z,13.88
2023-01-02T08:47:54.987Z,13.86
2023-01-02T08:50:58.870Z,13.90
2023-01-02T08:54:02.817Z,13.90
2023-01-02T08:57:06.705Z,13.80
2023-01-02T09:00:11.320Z,13.86
2023-01-02T09:03:15.512Z,13.87
2023-01-02T09:06:22.069Z,13.99
2023-01-02T09:09:26.656Z,13.97
2023-01-02T09:12:32.251Z,14.10
2023-01-02T09:15:36.105Z,13.94
2023-01-02T09:18:40.457Z,13.94
2023-01-02T09:21:45.074Z,14.22
2023-01-02T09:24:49.053Z,14.08
2023-01-02T09:27:53.129Z,13.93
2023-01-02T09:30:57.348Z,13.99
2023-01-02T09:34:01.507Z,14.29
2023-01-02T09:37:05.663Z,14.23
2023-01-02T09:40:09.330Z,14.41
2023-01-02T09:43:13.428Z,14.46
2023-01-02T09:46:17.484Z,14.30
2023-01-02T09:49:21.455Z,14.15
2023-01-02T09:52:25.538Z,14.47
2023-01-02T09:55:29.580Z,14.52
2023-01-02T09:58:33.514Z,14.48
2023-01-02T10:01:38.317Z,14.42
2023-01-02T10:04:42.165Z,14.64
2023-01-02T10:07:46.571Z,15.03
2023-01-02T10:10:50.376Z,15.12
2023-01-02T10:17:18.481Z,15.22
2023-01-02T10:20:24.384Z,14.76
2023-01-02T10:23:28.701Z,14.82
2023-01-02T10:26:32.540Z,14.91
2023-01-02T10:29:36.684Z,14.80
2023-01-02T10:32:40.774Z,14.73
2023-01-02T10:35:44.531Z,14.50
2023-01-02T10:38:48.322Z,14.79
2023-01-02T10:41:52.276Z,14.91
2023-01-02T10:44:58.084Z,14.69
2023-01-02T10:48:02.055Z,14.80
2023-01-02T10:51:06.260Z,14.58
2023-01-02T10:54:10.151Z,15.03
2023-01-02T10:57:14.225Z,15.14
2023-01-02T11:00:24.032Z,15.32
2023-01-02T11:03:31.878Z,15.41
2023-01-02T11:06:39.847Z,15.41
2023-01-02T11:09:47.268Z,15.42
2023-01-02T11:12:52.260Z,15.49
2023-01-02T11:15:56.304Z,15.61
2023-01-02T11:19:00.415Z,15.75
2023-01-02T11:22:04.641Z,15.63
2023-01-02T11:25:09.361Z,15.57
2023-01-02T11:28:13.556Z,15.65
2023-01-02T11:31:17.465Z,15.70
2023-01-02T11:34:21.614Z,15.98
2023-01-02T11:37:27.063Z,16.24
2023-01-02T11:40:31.274Z,16.33
2023-01-02T11:43:35.348Z,16.27
2023-01-02T11:46:39.334Z,16.49
2023-01-02T11:49:43.369Z,16.41
2023-01-02T11:52:47.400Z,16.28
2023-01-02T11:55:51.464Z,16.28
2023-01-02T11:58:55.516Z,16.12
2023-01-02T12:01:59.707Z,16.21
2023-01-02T12:05:03.817Z,16.28
2023-01-02T12:08:07.859Z,16.37
2023-01-02T12:11:11.597Z,16.41
2023-01-02T12:14:15.594Z,16.72
2023-01-02T12:17:19.355Z,16.95
2023-01-02T12:20:23.478Z,16.99
2023-01-02T12:23:27.541Z,17.10
2023-01-02T12:26:31.643Z,16.85
2023-01-02T12:29:46.783Z,16.93
2023-01-02T12:32:52.509Z,16.94
2023-01-02T12:35:56.734Z,17.19
2023-01-02T12:39:00.930Z,17.03
2023-01-02T12:42:05.157Z,16.97
2023-01-02T12:45:09.422Z,16.97
2023-01-02T12:48:13.922Z,16.88
2023-01-02T12:51:19.118Z,16.69
2023-01-02T12:54:22.783Z,16.56
2023-01-02T12:57:27.149Z,16.49
2023-01-02T13:00:31.233Z,16.49
2023-01-02T13:03:35.360Z,16.17
2023-01-02T13:06:45.437Z,16.17
2023-01-02T13:09:50.834Z,15.67
2023-01-02T13:12:54.780Z,16.07
2023-01-02T13:16:03.534Z,15.96
2023-01-02T13:19:09.074Z,15.79
2023-01-02T13:22:12.985Z,15.95
2023-01-02T13:25:19.625Z,16.06
2023-01-02T13:28:24.719Z,15.99
2023-01-02T13:31:46.672Z,15.77
2023-01-02T13:34:51.929Z,15.89
2023-01-02T13:37:55.820Z,15.95
2023-01-02T13:41:00.867Z,15.90
2023-01-02T13:44:04.659Z,15.95
2023-01-02T13:47:08.824Z,15.78
2023-01-02T13:50:21.746Z,15.87
2023-01-02T13:53:25.511Z,15.74
2023-01-02T13:56:29.535Z,15.62
2023-01-02T13:59:41.800Z,15.65
2023-01-02T14:02:47.949Z,15.46
2023-01-02T14:05:51.942Z,15.31
2023-01-02T14:08:56.036Z,15.13
2023-01-02T14:11:59.932Z,15.37
2023-01-02T14:15:03.961Z,15.31
2023-01-02T14:18:07.874Z,15.21
2023-01-02T14:21:11.871Z,15.42
2023-01-02T14:24:18.413Z,15.33
2023-01-02T14:27:23.222Z,15.00
2023-01-02T14:30:26.912Z,15.08
2023-01-02T14:33:30.934Z,15.00
2023-01-02T14:36:34.867Z,14.85
2023-01-02T14:39:38.812Z,14.80
2023-01-02T14:42:42.834Z,14.86
2023-01-02T14:45:47.010Z,15.00
2023-01-02T14:48:51.021Z,15.08
2023-01-02T14:51:54.906Z,15.16
2023-01-02T14:54:58.712Z,15.15
2023-01-02T14:58:02.778Z,14.90
2023-01-02T15:01:06.952Z,15.06
2023-01-02T15:04:11.247Z,15.10
2023-01-02T15:07:15.382Z,15.12
2023-01-02T15:10:19.571Z,15.13
2023-01-02T15:13:23.188Z,15.13
2023-01-02T15:16:27.031Z,15.15
2023-01-02T15:19:31.173Z,15.03
2023-01-02T15:22:37.509Z,14.97
2023-01-02T15:25:41.883Z,14.84
2023-01-02T15:28:45.769Z,14.67
2023-01-02T15:31:49.701Z,14.67
2023-01-02T15:34:53.589Z,14.84
2023-01-02T15:37:57.371Z,14.91
2023-01-02T15:41:01.341Z,14.95
2023-01-02T15:44:05.453Z,14.91
2023-01-02T15:47:09.503Z,14.86
2023-01-02T15:50:13.477Z,14.44
2023-01-02T15:53:17.482Z,14.34
2023-01-02T15:56:21.219Z,14.29
2023-01-02T15:59:25.271Z,14.42
2023-01-02T16:02:29.448Z,14.34
2023-01-02T16:05:33.434Z,14.53
2023-01-02T16:08:38.250Z,14.50
2023-01-02T16:11:42.280Z,14.15
2023-01-02T16:14:46.420Z,14.28
2023-01-02T16:17:50.371Z,14.11
2023-01-02T16:20:54.328Z,14.06
2023-01-02T16:23:58.144Z,14.37
2023-01-02T16:27:02.220Z,14.51
2023-01-02T16:30:06.607Z,14.34
2023-01-02T16:33:10.576Z,14.34
2023-01-02T16:36:14.612Z,14.60
2023-01-02T16:39:21.439Z,14.49
2023-01-02T16:42:25.367Z,14.70
2023-01-02T16:45:29.455Z,14.64
2023-01-02T16:48:33.323Z,14.61
2023-01-02T16:51:37.332Z,14.45
2023-01-02T16:54:41.376Z,14.48
2023-01-02T16:57:45.533Z,14.37
2023-01-02T17:00:49.825Z,14.15
2023-01-02T17:03:54.140Z,14.04
2023-01-02T17:06:58.087Z,14.31
2023-01-02T17:10:02.072Z,14.40
2023-01-02T17:13:06.368Z,14.23
2023-01-02T17:16:10.636Z,14.35
2023-01-02T17:19:14.693Z,14.19
2023-01-02T17:22:18.654Z,14.21
2023-01-02T17:25:22.823Z,14.22
2023-01-02T17:28:26.991Z,13.84
2023-01-02T17:31:31.229Z,13.50
2023-01-02T17:34:36.722Z,13.37
2023-01-02T17:37:40.674Z,13.66
2023-01-02T17:40:44.486Z,13.64
2023-01-02T17:44:02.080Z,13.34
2023-01-02T17:47:48.133Z,13.33
2023-01-02T17:50:32.670Z,13.35
2023-01-02T17:53:36.864Z,13.46
2023-01-02T17:56:40.973Z,13.44
2023-01-02T17:59:45.150Z,13.53
2023-01-02T18:02:49.437Z,13.63
2023-01-02T18:05:53.598Z,13.75
2023-01-02T18:08:57.555Z,13.54
2023-01-02T18:12:01.581Z,13.33
2023-01-02T18:15:05.735Z,13.32
2023-01-02T18:18:12.316Z,13.49
2023-01-02T18:21:16.653Z,13.08
2023-01-02T18:24:20.778Z,13.27
2023-01-02T18:27:24.730Z,13.22
2023-01-02T18:30:28.833Z,13.47
2023-01-02T18:33:35.464Z,13.32
2023-01-02T18:36:39.489Z,13.49
2023-01-02T18:39:43.530Z,13.32
2023-01-02T18:42:47.718Z,13.51
2023-01-02T18:45:51.627Z,13.55
2023-01-02T18:48:55.407Z,13.57
2023-01-02T18:51:59.655Z,13.68
2023-01-02T18:55:03.954Z,13.47
2023-01-02T18:58:07.594Z,13.55
2023-01-02T19:01:11.393Z,13.92
2023-01-02T19:04:24.502Z,13.78
2023-01-02T19:07:30.909Z,13.94
2023-01-02T19:10:37.442Z,13.63
2023-01-02T19:13:41.758Z,13.88
2023-01-02T19:16:45.992Z,13.90
2023-01-02T19:19:50.059Z,13.62
2023-01-02T19:22:54.075Z,13.65
2023-01-02T19:25:57.701Z,13.32
2023-01-02T19:29:01.834Z,13.49
2023-01-02T19:32:07.077Z,13.57
2023-01-02T19:35:10.869Z,13.26
2023-01-02T19:38:14.725Z,13.13
2023-01-02T19:41:18.487Z,12.93
2023-01-02T19:44:22.387Z,13.00
2023-01-02T19:47:26.408Z,13.29
2023-01-02T19:50:30.333Z,13.11
2023-01-02T19:53:34.146Z,13.09
2023-01-02T19:56:38.075Z,13.05
2023-01-02T19:59:43.963Z,13.20
2023-01-02T20:02:48.448Z,12.95
2023-01-02T20:05:52.657Z,12.56
2023-01-02T20:08:56.372Z,12.50
2023-01-02T20:12:05.653Z,12.84
2023-01-02T20:15:11.320Z,12.86
2023-01-02T20:18:15.141Z,12.73
2023-01-02T20:21:18.977Z,12.61
2023-01-02T20:24:23.825Z,12.74
2023-01-02T20:27:27.562Z,12.53
2023-01-02T20:30:31.385Z,12.46
2023-01-02T20:33:35.420Z,12.22
2023-01-02T20:36:39.358Z,12.33
2023-01-02T20:39:43.102Z,12.42
2023-01-02T20:42:47.021Z,12.39
2023-01-02T20:45:50.994Z,12.51
2023-01-02T20:48:54.933Z,12.48
2023-01-02T20:51:59.026Z,12.58
2023-01-02T20:55:03.015Z,12.80
2023-01-02T20:58:07.040Z,12.76
2023-01-02T21:01:11.007Z,12.93
2023-01-02T21:04:18.821Z,12.97
2023-01-02T21:07:28.621Z,12.64
2023-01-02T21:10:32.470Z,12.82
2023-01-02T21:13:36.277Z,13.07
2023-01-02T21:16:40.142Z,13.08
2023-01-02T21:19:44.068Z,13.04
2023-01-02T21:22:48.294Z,13.02
2023-01-02T21:25:52.693Z,12.76
2023-01-02T21:28:56.569Z,12.92
2023-01-02T21:32:00.496Z,13.00
2023-01-02T21:35:04.632Z,13.01
2023-01-02T21:38:08.570Z,12.99
2023-01-02T21:41:12.395Z,13.06
2023-01-02T21:44:16.274Z,13.07
2023-01-02T21:47:20.374Z,13.08
2023-01-02T21:50:24.653Z,13.04
2023-01-02T21:53:28.764Z,12.78
2023-01-02T21:56:32.647Z,12.82
2023-01-02T21:59:36.487Z,12.79
2023-01-02T22:02:40.417Z,12.81
2023-01-02T22:05:44.778Z,12.90
2023-01-02T22:08:48.479Z,12.88
2023-01-02T22:11:52.461Z,12.96
2023-01-02T22:14:56.498Z,12.99
2023-01-02T22:18:00.292Z,12.90
2023-01-02T22:21:04.133Z,12.81
2023-01-02T22:24:08.049Z,12.76
2023-01-02T22:27:12.205Z,12.83
2023-01-02T22:30:22.125Z,12.83
2023-01-02T22:33:28.688Z,12.85
2023-01-02T22:36:32.701Z,12.86
2023-01-02T22:39:36.515Z,12.83
2023-01-02T22:46:04.739Z,12.85
2023-01-02T22:49:08.695Z,12.45
2023-01-02T22:52:12.554Z,12.53
2023-01-02T22:55:16.231Z,12.68
2023-01-02T22:58:20.377Z,12.78
2023-01-02T23:01:24.517Z,12.80
2023-01-02T23:04:28.667Z,12.75
2023-01-02T23:07:32.797Z,12.65
2023-01-02T23:10:36.570Z,12.39
2023-01-02T23:13:40.433Z,12.67
2023-01-02T23:16:44.503Z,12.68
2023-01-02T23:19:48.512Z,12.50
2023-01-02T23:22:52.533Z,12.60
2023-01-02T23:25:56.776Z,12.47
2023-01-02T23:29:09.009Z,12.57
2023-01-02T23:32:13.117Z,12.67
2023-01-02T23:35:18.109Z,12.69
2023-01-02T23:38:22.108Z,12.62
2023-01-02T23:41:25.857Z,12.66
2023-01-02T23:44:29.908Z,12.67
2023-01-02T23:47:33.603Z,12.68
2023-01-02T23:50:37.720Z,12.71
2023-01-02T23:53:41.620Z,12.67
2023-01-02T23:56:45.651Z,12.72
2023-01-02T23:59:49.863Z,12.76
